North Creek, Utah
Current Conditions -  °F | °C
As of 7:52 AM on Sunday 23 Nov 2014 (Local Time) from KMLF Reporting Station
Clear Clear  
Wind Chill: 19°   Ceiling: Unl
Heat Index: 29°   Visibility: 10mi
Dew Point: 21°   Wind: 12mph
Humidity: 72%   Direction: 330°NNW
Pressure: 30.18"   Gusts: NA
Location:  38.344°N, 112.579°W
Report Text: KMLF 231452Z AUTO 33010KT 10SM CLR M02/M06 A3018 RMK AO2 SLP224 T10171061 51026 TSNO
Loading
Personal Weather Stations






























Interactive Weather Map New forecast layout! Learn more

10-Day Weather Forecast

Advertisements
Track Severe Weather on mobile